Time;durP1;ratioP1;P1;durP2;ratioP2;P2;SDS_P1;SDS_P2;PMS_P1;PMS_P2;Temp;Humidity;BMP_temperature;BMP_pressure;BME280_temperature;BME280_humidity;BME280_pressure;Samples;Min_cycle;Max_cycle;Signal;HPM_P1;HPM_P2
2021/12/30 00:00:58;;;;;;;40.30;18.05;;;;;;;;;;5113711;28;20182;-59
2021/12/30 00:03:24;;;;;;;34.47;16.30;;;;;;;;;;5113738;28;20225;-59
2021/12/30 00:05:52;;;;;;;35.00;16.80;;;;;;;;;;5114083;28;20164;-58
2021/12/30 00:08:19;;;;;;;34.20;15.98;;;;;;;;;;5114077;28;20181;-60
2021/12/30 00:10:45;;;;;;;34.35;16.25;;;;;;;;;;5116707;28;20159;-60
2021/12/30 00:13:11;;;;;;;30.42;15.23;;;;;;;;;;5117572;28;20167;-61
2021/12/30 00:15:37;;;;;;;34.95;16.20;;;;;;;;;;5117713;28;20167;-61
2021/12/30 00:18:04;;;;;;;33.50;15.52;;;;;;;;;;5117551;28;20162;-61
2021/12/30 00:20:30;;;;;;;33.85;15.57;;;;;;;;;;5117464;28;20171;-60
2021/12/30 00:22:56;;;;;;;35.80;15.30;;;;;;;;;;5117217;28;20233;-60
2021/12/30 00:25:22;;;;;;;34.38;15.20;;;;;;;;;;5117211;28;20190;-60
2021/12/30 00:27:48;;;;;;;33.22;15.18;;;;;;;;;;5117251;28;20181;-60
2021/12/30 00:30:14;;;;;;;32.33;14.35;;;;;;;;;;5117275;28;20159;-60
2021/12/30 00:32:40;;;;;;;33.35;15.30;;;;;;;;;;5117047;28;20255;-60
2021/12/30 00:35:06;;;;;;;32.03;14.35;;;;;;;;;;5117245;28;20170;-60
2021/12/30 00:37:32;;;;;;;31.25;14.65;;;;;;;;;;5117043;28;20621;-61
2021/12/30 00:39:58;;;;;;;32.92;13.68;;;;;;;;;;5117054;28;20163;-61
2021/12/30 00:42:24;;;;;;;29.88;13.82;;;;;;;;;;5117162;28;20250;-60
2021/12/30 00:44:50;;;;;;;34.83;15.38;;;;;;;;;;5117156;28;20163;-60
2021/12/30 00:47:16;;;;;;;28.23;14.25;;;;;;;;;;5117012;28;20615;-60
2021/12/30 00:49:42;;;;;;;33.40;15.02;;;;;;;;;;5117126;28;20166;-61
2021/12/30 00:52:08;;;;;;;29.73;14.20;;;;;;;;;;5117024;28;20167;-60
2021/12/30 00:54:34;;;;;;;27.95;13.52;;;;;;;;;;5116974;28;20478;-61
2021/12/30 00:57:00;;;;;;;29.08;13.73;;;;;;;;;;5116870;28;20208;-59
2021/12/30 00:59:26;;;;;;;29.90;14.25;;;;;;;;;;5117170;28;20163;-61
2021/12/30 01:01:52;;;;;;;27.08;12.20;;;;;;;;;;5116800;28;20158;-60
2021/12/30 01:04:20;;;;;;;28.42;12.27;;;;;;;;;;5116617;28;20858;-60
2021/12/30 01:06:46;;;;;;;26.67;12.25;;;;;;;;;;5116657;28;20190;-60
2021/12/30 01:09:12;;;;;;;28.35;11.88;;;;;;;;;;5116517;28;20458;-60
2021/12/30 01:11:38;;;;;;;27.00;11.95;;;;;;;;;;5117047;28;20470;-59
2021/12/30 01:14:17;;;;;;;27.13;12.65;;;;;;;;;;5126227;28;20178;-60
2021/12/30 01:16:47;;;;;;;27.58;12.60;;;;;;;;;;5122959;28;20284;-60
2021/12/30 01:19:42;;;;;;;28.02;12.25;;;;;;;;;;5116667;28;20171;-60
2021/12/30 01:22:02;;;;;;;28.73;12.43;;;;;;;;;;5116062;28;20190;-60
2021/12/30 01:24:27;;;;;;;31.05;11.98;;;;;;;;;;5116308;28;20726;-60
2021/12/30 01:26:54;;;;;;;31.58;11.95;;;;;;;;;;5116251;28;20183;-59
2021/12/30 01:29:19;;;;;;;25.75;10.93;;;;;;;;;;5116455;28;20526;-60
2021/12/30 01:31:45;;;;;;;31.67;11.85;;;;;;;;;;5115950;28;20266;-59
2021/12/30 01:34:12;;;;;;;26.40;10.77;;;;;;;;;;5116273;28;20195;-60
2021/12/30 01:36:38;;;;;;;25.98;12.40;;;;;;;;;;5116794;28;20163;-60
2021/12/30 01:39:04;;;;;;;27.45;12.25;;;;;;;;;;5116768;28;20506;-60
2021/12/30 01:41:30;;;;;;;28.77;11.77;;;;;;;;;;5116297;28;20162;-60
2021/12/30 01:43:56;;;;;;;26.27;11.18;;;;;;;;;;5116646;28;20204;-59
2021/12/30 01:46:22;;;;;;;22.83;10.75;;;;;;;;;;5122993;28;20170;-60
2021/12/30 01:48:48;;;;;;;27.40;11.55;;;;;;;;;;5126267;28;20151;-59
2021/12/30 01:51:14;;;;;;;29.25;11.73;;;;;;;;;;5122138;28;20173;-59
2021/12/30 01:53:40;;;;;;;32.13;11.10;;;;;;;;;;5122366;28;20242;-60
2021/12/30 01:56:07;;;;;;;22.02;11.13;;;;;;;;;;5123082;28;20167;-60
2021/12/30 01:58:35;;;;;;;22.25;10.93;;;;;;;;;;5123970;28;20204;-60
2021/12/30 02:01:01;;;;;;;27.25;11.55;;;;;;;;;;5121924;28;20202;-59
2021/12/30 02:03:27;;;;;;;24.65;11.00;;;;;;;;;;5122052;28;20187;-62
2021/12/30 02:05:53;;;;;;;23.42;11.32;;;;;;;;;;5124841;28;20159;-61
2021/12/30 02:08:19;;;;;;;21.58;10.85;;;;;;;;;;5132290;28;20551;-61
2021/12/30 02:10:46;;;;;;;21.50;10.30;;;;;;;;;;5132972;28;20179;-61
2021/12/30 02:13:14;;;;;;;20.83;10.05;;;;;;;;;;5135858;28;20159;-60
2021/12/30 02:15:40;;;;;;;19.05;9.75;;;;;;;;;;5137151;28;20158;-60
2021/12/30 02:18:06;;;;;;;17.98;9.50;;;;;;;;;;5136133;28;20173;-61
2021/12/30 02:20:41;;;;;;;19.40;9.40;;;;;;;;;;5117039;28;20171;-60
2021/12/30 02:23:08;;;;;;;18.35;8.88;;;;;;;;;;5115153;28;20200;-61
2021/12/30 02:25:34;;;;;;;17.83;9.15;;;;;;;;;;5114946;28;20620;-60
2021/12/30 02:28:00;;;;;;;16.88;8.90;;;;;;;;;;5115074;28;20162;-59
2021/12/30 02:30:26;;;;;;;15.75;8.48;;;;;;;;;;5115119;28;20166;-60
2021/12/30 02:32:51;;;;;;;14.85;8.15;;;;;;;;;;5114128;28;20656;-60
2021/12/30 02:35:17;;;;;;;16.80;8.55;;;;;;;;;;5114685;28;20175;-60
2021/12/30 02:37:44;;;;;;;16.52;8.57;;;;;;;;;;5114699;28;20167;-60
2021/12/30 02:40:10;;;;;;;16.88;8.43;;;;;;;;;;5114860;28;20239;-60
2021/12/30 02:42:36;;;;;;;16.45;7.93;;;;;;;;;;5114483;28;20198;-60
2021/12/30 02:45:02;;;;;;;18.10;8.68;;;;;;;;;;5114627;28;20170;-60
2021/12/30 02:47:32;;;;;;;15.85;8.05;;;;;;;;;;5114476;28;20174;-60
2021/12/30 02:49:58;;;;;;;12.20;7.45;;;;;;;;;;5114801;28;20151;-60
2021/12/30 02:52:24;;;;;;;12.82;7.47;;;;;;;;;;5114750;28;20262;-60
2021/12/30 02:54:50;;;;;;;13.18;7.95;;;;;;;;;;5114517;28;20160;-60
2021/12/30 02:57:16;;;;;;;14.48;7.55;;;;;;;;;;5114713;28;20166;-60
2021/12/30 02:59:42;;;;;;;16.30;8.30;;;;;;;;;;5114479;28;20220;-59
2021/12/30 03:02:08;;;;;;;13.23;7.53;;;;;;;;;;5114345;28;20163;-61
2021/12/30 03:04:35;;;;;;;16.33;8.13;;;;;;;;;;5114308;28;20525;-59
2021/12/30 03:07:01;;;;;;;14.18;7.85;;;;;;;;;;5114515;28;20205;-62
2021/12/30 03:09:27;;;;;;;13.15;7.82;;;;;;;;;;5114387;28;20159;-59
2021/12/30 03:11:55;;;;;;;13.75;8.02;;;;;;;;;;5114428;28;20227;-58
2021/12/30 03:14:24;;;;;;;13.20;7.88;;;;;;;;;;5114471;28;20175;-60
2021/12/30 03:16:50;;;;;;;11.85;7.15;;;;;;;;;;5114593;28;20183;-60
2021/12/30 03:19:16;;;;;;;13.70;7.40;;;;;;;;;;5114031;28;20181;-60
2021/12/30 03:21:42;;;;;;;10.90;6.35;;;;;;;;;;5114069;28;20590;-60
2021/12/30 03:24:09;;;;;;;10.90;6.55;;;;;;;;;;5114258;28;20191;-60
2021/12/30 03:26:35;;;;;;;11.25;6.55;;;;;;;;;;5114132;28;20163;-59
2021/12/30 03:29:01;;;;;;;12.23;6.28;;;;;;;;;;5114378;28;20165;-60
2021/12/30 03:31:27;;;;;;;10.40;6.20;;;;;;;;;;5113894;28;20183;-60
2021/12/30 03:33:53;;;;;;;8.48;5.43;;;;;;;;;;5113486;28;20555;-59
2021/12/30 03:36:20;;;;;;;8.65;5.53;;;;;;;;;;5113333;28;20171;-58
2021/12/30 03:38:48;;;;;;;11.65;6.40;;;;;;;;;;5113088;28;20166;-58
2021/12/30 03:41:15;;;;;;;9.90;6.18;;;;;;;;;;5113300;28;20163;-60
2021/12/30 03:43:41;;;;;;;10.85;5.55;;;;;;;;;;5112912;28;20263;-59
2021/12/30 03:46:08;;;;;;;10.70;6.10;;;;;;;;;;5116285;28;20174;-59
2021/12/30 03:48:39;;;;;;;10.60;5.97;;;;;;;;;;5116528;28;20598;-59
2021/12/30 03:51:08;;;;;;;12.18;6.20;;;;;;;;;;5116602;28;20204;-57
2021/12/30 03:53:38;;;;;;;12.35;6.22;;;;;;;;;;5116927;28;20236;-59
2021/12/30 03:56:04;;;;;;;12.95;6.78;;;;;;;;;;5116730;28;20632;-59
2021/12/30 03:58:30;;;;;;;11.07;6.32;;;;;;;;;;5116709;28;20171;-60
2021/12/30 04:00:56;;;;;;;10.73;6.10;;;;;;;;;;5116487;28;20466;-59
2021/12/30 04:03:22;;;;;;;12.05;6.63;;;;;;;;;;5116856;28;20225;-59
2021/12/30 04:05:48;;;;;;;12.77;6.40;;;;;;;;;;5116726;28;20288;-58
2021/12/30 04:08:14;;;;;;;18.35;7.20;;;;;;;;;;5117098;28;20610;-59
2021/12/30 04:10:40;;;;;;;23.10;7.50;;;;;;;;;;5116639;28;20532;-59
2021/12/30 04:13:06;;;;;;;24.05;8.85;;;;;;;;;;5116660;28;20190;-60
2021/12/30 04:15:32;;;;;;;17.10;8.35;;;;;;;;;;5116403;28;20171;-59
2021/12/30 04:17:58;;;;;;;17.98;8.52;;;;;;;;;;5116944;28;20165;-59
2021/12/30 04:20:24;;;;;;;19.55;7.80;;;;;;;;;;5116410;28;20170;-60
2021/12/30 04:22:49;;;;;;;17.85;8.10;;;;;;;;;;5116518;28;20190;-58
2021/12/30 04:25:16;;;;;;;19.23;8.02;;;;;;;;;;5116069;28;20166;-58
2021/12/30 04:27:43;;;;;;;21.40;9.40;;;;;;;;;;5116459;28;20171;-60
2021/12/30 04:30:09;;;;;;;19.67;9.27;;;;;;;;;;5115991;28;20191;-60
2021/12/30 04:32:35;;;;;;;25.13;9.32;;;;;;;;;;5081341;28;1012039;-60
2021/12/30 04:35:01;;;;;;;24.63;9.68;;;;;;;;;;5117124;28;20588;-60
2021/12/30 04:37:27;;;;;;;22.25;9.57;;;;;;;;;;5117364;28;20163;-60
2021/12/30 04:39:53;;;;;;;21.83;9.40;;;;;;;;;;5116937;28;20167;-60
2021/12/30 04:42:19;;;;;;;21.13;10.27;;;;;;;;;;5116962;28;20170;-60
2021/12/30 04:44:47;;;;;;;22.95;10.00;;;;;;;;;;5116895;28;20191;-60
2021/12/30 04:47:14;;;;;;;23.45;10.05;;;;;;;;;;5117100;28;20598;-59
2021/12/30 04:49:39;;;;;;;22.88;10.35;;;;;;;;;;5117245;28;20247;-59
2021/12/30 04:52:05;;;;;;;22.38;10.65;;;;;;;;;;5116951;28;20613;-57
2021/12/30 04:54:31;;;;;;;26.42;10.95;;;;;;;;;;5117076;28;20225;-60
2021/12/30 04:56:57;;;;;;;27.67;11.38;;;;;;;;;;5116196;28;20508;-59
2021/12/30 04:59:23;;;;;;;26.90;11.07;;;;;;;;;;5116642;28;20166;-60
2021/12/30 05:01:49;;;;;;;25.33;10.85;;;;;;;;;;5116748;28;20167;-60
2021/12/30 05:04:15;;;;;;;25.15;11.52;;;;;;;;;;5116520;28;20194;-60
2021/12/30 05:06:41;;;;;;;28.00;11.65;;;;;;;;;;5116626;28;20254;-60
2021/12/30 05:09:08;;;;;;;24.83;11.07;;;;;;;;;;5116469;28;20572;-59
2021/12/30 05:11:35;;;;;;;29.15;12.02;;;;;;;;;;5116490;28;20151;-59
2021/12/30 05:14:01;;;;;;;23.02;11.23;;;;;;;;;;5116668;28;20220;-59
2021/12/30 05:16:27;;;;;;;29.98;12.07;;;;;;;;;;5116517;28;20163;-59
2021/12/30 05:18:56;;;;;;;34.00;12.05;;;;;;;;;;5116668;28;20173;-60
2021/12/30 05:21:22;;;;;;;31.95;12.07;;;;;;;;;;5116353;28;20159;-60
2021/12/30 05:23:48;;;;;;;32.17;13.15;;;;;;;;;;5116180;28;20278;-60
2021/12/30 05:26:16;;;;;;;29.98;12.43;;;;;;;;;;5116047;28;20580;-59
2021/12/30 05:28:42;;;;;;;32.33;12.43;;;;;;;;;;5115166;28;20246;-60
2021/12/30 05:31:08;;;;;;;30.40;12.13;;;;;;;;;;5115886;28;20371;-59
2021/12/30 05:33:34;;;;;;;35.88;13.65;;;;;;;;;;5116011;28;20162;-60
2021/12/30 05:36:00;;;;;;;29.05;12.35;;;;;;;;;;5115845;28;20178;-60
2021/12/30 05:38:25;;;;;;;32.25;12.82;;;;;;;;;;5116124;28;20219;-60
2021/12/30 05:40:51;;;;;;;33.55;12.13;;;;;;;;;;5116072;28;20594;-60
2021/12/30 05:43:17;;;;;;;30.63;12.88;;;;;;;;;;5115872;28;20273;-60
2021/12/30 05:45:43;;;;;;;40.95;14.25;;;;;;;;;;5115781;28;20174;-59
2021/12/30 05:48:09;;;;;;;30.95;12.45;;;;;;;;;;5115855;28;20240;-59
2021/12/30 05:50:36;;;;;;;33.38;11.95;;;;;;;;;;5115588;28;20170;-60
2021/12/30 05:53:02;;;;;;;31.23;13.05;;;;;;;;;;5115741;28;20595;-60
2021/12/30 05:55:28;;;;;;;30.73;11.85;;;;;;;;;;5115902;28;20163;-59
2021/12/30 05:57:55;;;;;;;32.13;12.20;;;;;;;;;;5115705;28;20227;-59
2021/12/30 06:00:21;;;;;;;37.50;12.18;;;;;;;;;;5115733;28;20254;-60
2021/12/30 06:02:47;;;;;;;30.80;11.85;;;;;;;;;;5115876;28;20182;-60
2021/12/30 06:05:14;;;;;;;33.47;11.85;;;;;;;;;;5115391;28;20171;-59
2021/12/30 06:07:40;;;;;;;27.88;11.68;;;;;;;;;;5114678;28;20163;-59
2021/12/30 06:10:06;;;;;;;33.70;11.68;;;;;;;;;;5115217;28;20571;-60
2021/12/30 06:12:32;;;;;;;29.85;12.27;;;;;;;;;;5115149;28;20612;-60
2021/12/30 06:14:58;;;;;;;28.02;11.43;;;;;;;;;;5114890;28;20250;-60
2021/12/30 06:17:24;;;;;;;29.70;10.55;;;;;;;;;;5115104;28;20163;-60
2021/12/30 06:19:50;;;;;;;28.55;11.13;;;;;;;;;;5114914;28;20182;-60
2021/12/30 06:22:16;;;;;;;25.60;11.60;;;;;;;;;;5115176;28;20159;-60
2021/12/30 06:24:42;;;;;;;36.60;10.88;;;;;;;;;;5114828;28;20190;-60
2021/12/30 06:27:08;;;;;;;30.20;11.68;;;;;;;;;;5114822;28;20155;-59
2021/12/30 06:29:34;;;;;;;28.45;10.45;;;;;;;;;;5114943;28;20215;-60
2021/12/30 06:32:00;;;;;;;27.17;10.68;;;;;;;;;;5114822;28;20510;-60
2021/12/30 06:34:26;;;;;;;26.15;9.52;;;;;;;;;;5114941;28;20505;-60
2021/12/30 06:36:52;;;;;;;23.45;10.32;;;;;;;;;;5114827;28;20171;-60
2021/12/30 06:39:18;;;;;;;31.23;11.10;;;;;;;;;;5114788;28;20162;-60
2021/12/30 06:41:45;;;;;;;28.15;10.48;;;;;;;;;;5115047;28;20163;-59
2021/12/30 06:44:10;;;;;;;23.77;9.93;;;;;;;;;;5114756;28;20191;-60
2021/12/30 06:46:36;;;;;;;32.03;10.82;;;;;;;;;;5114875;28;20220;-60
2021/12/30 06:49:07;;;;;;;31.52;10.77;;;;;;;;;;5114848;28;20743;-60
2021/12/30 06:51:35;;;;;;;31.92;10.52;;;;;;;;;;5114741;28;20151;-60
2021/12/30 06:54:01;;;;;;;31.23;10.43;;;;;;;;;;5114758;28;20257;-60
2021/12/30 06:56:27;;;;;;;23.98;10.07;;;;;;;;;;5114519;28;20231;-59
2021/12/30 06:58:53;;;;;;;25.27;9.90;;;;;;;;;;5114518;28;20541;-60
2021/12/30 07:01:19;;;;;;;26.77;10.32;;;;;;;;;;5114465;28;20175;-60
2021/12/30 07:03:45;;;;;;;28.08;10.13;;;;;;;;;;5114172;28;20201;-60
2021/12/30 07:06:11;;;;;;;33.25;10.45;;;;;;;;;;5114228;28;20169;-60
2021/12/30 07:08:37;;;;;;;28.33;10.55;;;;;;;;;;5114299;28;20387;-60
2021/12/30 07:11:03;;;;;;;33.45;10.02;;;;;;;;;;5114276;28;20166;-60
2021/12/30 07:13:29;;;;;;;22.58;9.18;;;;;;;;;;5114583;28;20506;-60
2021/12/30 07:15:55;;;;;;;25.85;9.65;;;;;;;;;;5114438;28;20159;-60
2021/12/30 07:18:21;;;;;;;30.90;9.73;;;;;;;;;;5113956;28;20162;-60
2021/12/30 07:20:47;;;;;;;24.42;9.27;;;;;;;;;;5114028;28;20239;-60
2021/12/30 07:23:13;;;;;;;26.40;11.65;;;;;;;;;;5114114;28;20198;-59
2021/12/30 07:25:39;;;;;;;30.30;11.73;;;;;;;;;;5114021;28;20191;-61
2021/12/30 07:28:05;;;;;;;30.35;12.23;;;;;;;;;;5114447;28;20258;-59
2021/12/30 07:30:31;;;;;;;28.05;10.48;;;;;;;;;;5114210;28;20171;-61
2021/12/30 07:32:57;;;;;;;28.40;9.60;;;;;;;;;;5114099;28;20186;-61
2021/12/30 07:35:23;;;;;;;29.40;10.27;;;;;;;;;;5114634;28;20163;-61
2021/12/30 07:37:49;;;;;;;26.25;9.30;;;;;;;;;;5114100;28;20163;-59
2021/12/30 07:40:16;;;;;;;26.70;9.23;;;;;;;;;;5114177;28;20582;-59
2021/12/30 07:42:42;;;;;;;27.02;9.05;;;;;;;;;;5114096;28;20578;-61
2021/12/30 07:45:09;;;;;;;26.00;8.75;;;;;;;;;;5114030;28;20167;-60
2021/12/30 07:47:35;;;;;;;22.55;8.52;;;;;;;;;;5113936;28;20254;-60
2021/12/30 07:50:01;;;;;;;23.38;8.95;;;;;;;;;;5113830;28;20209;-60
2021/12/30 07:52:27;;;;;;;25.02;8.27;;;;;;;;;;5113794;28;20186;-61
2021/12/30 07:54:53;;;;;;;28.55;9.07;;;;;;;;;;5114089;28;20559;-60
2021/12/30 07:57:21;;;;;;;25.13;8.55;;;;;;;;;;5114059;28;20219;-60
2021/12/30 07:59:47;;;;;;;22.20;8.38;;;;;;;;;;5114268;28;20194;-61
2021/12/30 08:02:14;;;;;;;22.85;8.88;;;;;;;;;;5113652;28;20173;-59
2021/12/30 08:04:39;;;;;;;20.33;9.05;;;;;;;;;;5113490;28;20585;-58
2021/12/30 08:07:06;;;;;;;23.60;9.30;;;;;;;;;;5113596;28;20166;-60
2021/12/30 08:09:32;;;;;;;23.63;9.15;;;;;;;;;;5113747;28;20166;-61
2021/12/30 08:11:59;;;;;;;26.85;9.68;;;;;;;;;;5113977;28;20503;-60
2021/12/30 08:14:25;;;;;;;25.73;11.23;;;;;;;;;;5113681;28;20159;-61
2021/12/30 08:16:51;;;;;;;26.13;10.18;;;;;;;;;;5113498;28;20170;-61
2021/12/30 08:19:17;;;;;;;30.02;11.45;;;;;;;;;;5113543;28;20249;-61
2021/12/30 08:21:43;;;;;;;28.25;10.20;;;;;;;;;;5113291;28;20230;-60
2021/12/30 08:24:10;;;;;;;22.92;9.77;;;;;;;;;;5113697;28;20193;-61
2021/12/30 08:26:36;;;;;;;25.80;9.75;;;;;;;;;;5113844;28;20166;-61
2021/12/30 08:29:02;;;;;;;25.30;10.23;;;;;;;;;;5113580;28;20597;-60
2021/12/30 08:31:28;;;;;;;28.17;10.25;;;;;;;;;;5115754;28;20183;-60
2021/12/30 08:33:54;;;;;;;29.77;10.57;;;;;;;;;;5117270;28;20163;-60
2021/12/30 08:36:20;;;;;;;25.33;10.43;;;;;;;;;;5117208;28;20173;-60
2021/12/30 08:38:46;;;;;;;33.38;12.07;;;;;;;;;;5117221;28;20474;-61
2021/12/30 08:41:12;;;;;;;28.38;12.20;;;;;;;;;;5117157;28;20159;-61
2021/12/30 08:43:37;;;;;;;25.67;11.38;;;;;;;;;;5117093;28;20194;-60
2021/12/30 08:46:03;;;;;;;29.85;11.32;;;;;;;;;;5116881;28;20178;-61
2021/12/30 08:48:29;;;;;;;29.42;12.23;;;;;;;;;;5116708;28;20219;-60
2021/12/30 08:50:56;;;;;;;30.92;11.88;;;;;;;;;;5117027;28;20163;-60
2021/12/30 08:53:25;;;;;;;27.73;12.38;;;;;;;;;;5116714;28;20165;-60
2021/12/30 08:55:51;;;;;;;31.42;13.02;;;;;;;;;;5116890;28;20605;-60
2021/12/30 08:58:17;;;;;;;33.95;12.48;;;;;;;;;;5116722;28;20167;-60
2021/12/30 09:00:46;;;;;;;29.35;12.60;;;;;;;;;;5117039;28;20174;-60
2021/12/30 09:03:12;;;;;;;31.95;12.98;;;;;;;;;;5116490;28;20182;-60
2021/12/30 09:05:38;;;;;;;38.55;13.20;;;;;;;;;;5116499;28;20174;-60
2021/12/30 09:08:04;;;;;;;36.03;12.95;;;;;;;;;;5116938;28;20211;-60
2021/12/30 09:10:34;;;;;;;34.35;12.75;;;;;;;;;;5116806;28;20170;-60
2021/12/30 09:13:00;;;;;;;30.05;13.07;;;;;;;;;;5116620;28;20175;-60
2021/12/30 09:15:27;;;;;;;35.38;12.88;;;;;;;;;;5116760;28;20497;-60
2021/12/30 09:17:54;;;;;;;29.13;12.85;;;;;;;;;;5116405;28;20513;-60
2021/12/30 09:20:20;;;;;;;29.70;11.68;;;;;;;;;;5116626;28;20170;-60
2021/12/30 09:22:47;;;;;;;29.02;12.57;;;;;;;;;;5116481;28;20505;-60
2021/12/30 09:25:13;;;;;;;32.17;13.10;;;;;;;;;;5116654;28;20186;-60
2021/12/30 09:27:40;;;;;;;35.78;13.50;;;;;;;;;;5116760;28;20858;-60
2021/12/30 09:30:07;;;;;;;29.17;12.93;;;;;;;;;;5116653;28;20517;-60
2021/12/30 09:32:33;;;;;;;25.17;12.15;;;;;;;;;;5116187;28;20274;-60
2021/12/30 09:34:59;;;;;;;27.95;12.40;;;;;;;;;;5116323;28;20191;-60
2021/12/30 09:37:25;;;;;;;27.48;11.85;;;;;;;;;;5115796;28;20163;-59
2021/12/30 09:39:51;;;;;;;29.20;12.38;;;;;;;;;;5117514;28;20166;-59
2021/12/30 09:42:18;;;;;;;31.83;12.40;;;;;;;;;;5117010;28;20171;-60
2021/12/30 09:44:44;;;;;;;35.20;12.70;;;;;;;;;;5124278;28;20214;-60
2021/12/30 09:47:10;;;;;;;23.60;11.15;;;;;;;;;;5122632;28;20162;-60
2021/12/30 09:49:36;;;;;;;27.92;14.13;;;;;;;;;;5123360;28;20223;-60
2021/12/30 09:52:02;;;;;;;33.50;12.55;;;;;;;;;;5123470;28;20497;-60
2021/12/30 09:54:28;;;;;;;26.70;12.23;;;;;;;;;;5131370;28;20197;-60
2021/12/30 09:56:54;;;;;;;31.75;14.13;;;;;;;;;;5130162;28;20163;-60
2021/12/30 09:59:22;;;;;;;30.83;11.90;;;;;;;;;;5131631;28;20230;-60
2021/12/30 10:01:48;;;;;;;32.42;13.32;;;;;;;;;;5131414;28;20155;-60
2021/12/30 10:04:14;;;;;;;30.70;13.30;;;;;;;;;;5135707;28;20194;-61
2021/12/30 10:06:41;;;;;;;27.80;12.73;;;;;;;;;;5135373;28;20170;-60
2021/12/30 10:09:12;;;;;;;37.50;13.15;;;;;;;;;;5134219;28;20167;-60
2021/12/30 10:11:45;;;;;;;32.60;12.20;;;;;;;;;;5134855;28;20147;-60
2021/12/30 10:14:11;;;;;;;41.85;13.88;;;;;;;;;;5123712;28;20661;-60
2021/12/30 10:16:37;;;;;;;32.55;13.60;;;;;;;;;;5115166;28;20249;-60
2021/12/30 10:19:07;;;;;;;40.10;14.35;;;;;;;;;;5115231;28;20186;-60
2021/12/30 10:21:33;;;;;;;40.17;14.05;;;;;;;;;;5115127;28;20169;-60
2021/12/30 10:24:00;;;;;;;39.53;15.38;;;;;;;;;;5115121;28;20190;-60
2021/12/30 10:26:26;;;;;;;38.17;14.32;;;;;;;;;;5114961;28;20506;-60
2021/12/30 10:28:56;;;;;;;41.03;14.30;;;;;;;;;;5114847;28;20194;-59
2021/12/30 10:31:24;;;;;;;39.13;14.98;;;;;;;;;;5114676;28;20225;-60
2021/12/30 10:34:05;;;;;;;35.88;14.00;;;;;;;;;;5115058;28;20162;-59
2021/12/30 10:36:35;;;;;;;36.05;13.82;;;;;;;;;;5114805;28;20262;-60
2021/12/30 10:39:19;;;;;;;41.28;14.90;;;;;;;;;;5114858;28;20231;-60
2021/12/30 10:41:46;;;;;;;41.15;15.15;;;;;;;;;;5114878;28;20219;-60
2021/12/30 10:44:12;;;;;;;38.75;14.63;;;;;;;;;;5114498;28;20186;-60
2021/12/30 10:46:38;;;;;;;41.42;15.73;;;;;;;;;;5114597;28;20241;-60
2021/12/30 10:49:06;;;;;;;38.42;14.40;;;;;;;;;;5114623;28;20170;-60
2021/12/30 10:51:34;;;;;;;36.40;14.25;;;;;;;;;;5114819;28;20224;-60
2021/12/30 10:54:09;;;;;;;37.13;13.60;;;;;;;;;;5114092;28;20189;-60
2021/12/30 10:56:36;;;;;;;36.20;15.10;;;;;;;;;;5114954;28;20617;-60
2021/12/30 10:59:10;;;;;;;33.85;14.90;;;;;;;;;;5114491;28;20178;-59
2021/12/30 11:01:46;;;;;;;30.17;13.57;;;;;;;;;;5114690;28;20171;-60
2021/12/30 11:04:12;;;;;;;33.97;13.38;;;;;;;;;;5114462;28;20645;-60
2021/12/30 11:06:39;;;;;;;40.72;14.25;;;;;;;;;;5114688;28;20163;-59
2021/12/30 11:09:05;;;;;;;35.97;12.98;;;;;;;;;;5114469;28;20159;-60
2021/12/30 11:11:31;;;;;;;37.70;14.27;;;;;;;;;;5114343;28;20601;-59
2021/12/30 11:14:05;;;;;;;36.85;14.27;;;;;;;;;;5114338;28;20167;-59
2021/12/30 11:16:31;;;;;;;39.22;12.65;;;;;;;;;;5114240;28;20191;-59
2021/12/30 11:18:57;;;;;;;32.97;13.65;;;;;;;;;;5114587;28;20170;-60
2021/12/30 11:21:39;;;;;;;36.90;14.70;;;;;;;;;;5114511;28;20167;-59
2021/12/30 11:24:06;;;;;;;43.42;12.43;;;;;;;;;;5113959;28;20643;-60
2021/12/30 11:26:32;;;;;;;35.97;14.20;;;;;;;;;;5114123;28;20243;-59
2021/12/30 11:28:59;;;;;;;32.05;12.93;;;;;;;;;;5114390;28;20257;-59
2021/12/30 11:31:25;;;;;;;31.15;12.30;;;;;;;;;;5114196;28;20189;-59
2021/12/30 11:33:51;;;;;;;39.00;14.50;;;;;;;;;;5114043;28;20159;-60
2021/12/30 11:36:17;;;;;;;30.70;13.13;;;;;;;;;;5113971;28;20178;-59
2021/12/30 11:38:44;;;;;;;36.72;12.98;;;;;;;;;;5114124;28;20166;-60
2021/12/30 11:41:16;;;;;;;29.77;12.77;;;;;;;;;;5113922;28;20162;-60
2021/12/30 11:43:43;;;;;;;31.20;13.27;;;;;;;;;;5113773;28;20178;-60
2021/12/30 11:46:28;;;;;;;37.58;12.70;;;;;;;;;;5114282;28;20173;-60
2021/12/30 11:48:55;;;;;;;34.67;12.82;;;;;;;;;;5114028;28;20159;-60
2021/12/30 11:51:23;;;;;;;34.50;13.55;;;;;;;;;;5114043;28;20163;-59
2021/12/30 11:53:50;;;;;;;37.50;12.63;;;;;;;;;;5114004;28;20231;-60
2021/12/30 11:56:17;;;;;;;32.13;12.10;;;;;;;;;;5114072;28;20198;-60
2021/12/30 11:58:45;;;;;;;35.45;12.60;;;;;;;;;;5113934;28;20173;-60
2021/12/30 12:01:11;;;;;;;31.67;12.10;;;;;;;;;;5113952;28;20258;-60
2021/12/30 12:03:38;;;;;;;36.17;12.45;;;;;;;;;;5113706;28;20290;-60
2021/12/30 12:06:06;;;;;;;30.67;12.00;;;;;;;;;;5115742;28;20163;-60
2021/12/30 12:08:45;;;;;;;30.02;11.85;;;;;;;;;;5117723;28;20162;-60
2021/12/30 12:11:13;;;;;;;34.65;12.38;;;;;;;;;;5117653;28;20582;-59
2021/12/30 12:13:41;;;;;;;36.42;11.93;;;;;;;;;;5117640;28;20661;-60
2021/12/30 12:16:06;;;;;;;34.97;12.35;;;;;;;;;;5117735;28;20232;-60
2021/12/30 12:18:33;;;;;;;32.50;11.68;;;;;;;;;;5117521;28;20602;-60
2021/12/30 12:21:00;;;;;;;35.40;12.68;;;;;;;;;;5117466;28;20200;-60
2021/12/30 12:23:31;;;;;;;40.95;11.82;;;;;;;;;;5117447;28;20247;-60
2021/12/30 12:26:06;;;;;;;31.17;12.02;;;;;;;;;;5117824;28;20174;-60
2021/12/30 12:28:32;;;;;;;31.67;12.32;;;;;;;;;;5118050;28;20173;-60
2021/12/30 12:30:58;;;;;;;27.23;12.13;;;;;;;;;;5117489;28;20178;-60
2021/12/30 12:33:25;;;;;;;29.15;11.93;;;;;;;;;;5117592;28;20182;-59
2021/12/30 12:35:51;;;;;;;28.15;10.90;;;;;;;;;;5117520;28;20159;-60
2021/12/30 12:38:35;;;;;;;26.02;10.93;;;;;;;;;;5117532;28;20175;-60
2021/12/30 12:41:02;;;;;;;26.30;10.93;;;;;;;;;;5117239;28;20159;-60
2021/12/30 12:43:31;;;;;;;23.70;11.30;;;;;;;;;;5117557;28;20325;-61
2021/12/30 12:46:01;;;;;;;30.10;10.45;;;;;;;;;;5117189;28;20263;-60
2021/12/30 12:48:29;;;;;;;25.35;11.70;;;;;;;;;;5117175;28;20483;-61
2021/12/30 12:50:55;;;;;;;22.95;10.30;;;;;;;;;;5117004;28;20262;-61
2021/12/30 12:53:37;;;;;;;24.38;10.30;;;;;;;;;;5117158;28;20249;-60
2021/12/30 12:56:05;;;;;;;26.92;10.50;;;;;;;;;;5116805;28;20139;-61
2021/12/30 12:58:36;;;;;;;20.60;9.57;;;;;;;;;;5116924;28;20197;-61
2021/12/30 13:01:03;;;;;;;22.05;9.57;;;;;;;;;;5117043;28;20175;-61
2021/12/30 13:03:29;;;;;;;21.65;9.48;;;;;;;;;;5116759;28;20289;-61
2021/12/30 13:05:59;;;;;;;20.35;8.75;;;;;;;;;;5116506;28;20501;-61
2021/12/30 13:08:26;;;;;;;15.63;7.47;;;;;;;;;;5117129;28;20228;-60
2021/12/30 13:10:52;;;;;;;12.20;6.88;;;;;;;;;;5116448;28;20163;-61
2021/12/30 13:13:28;;;;;;;10.65;6.10;;;;;;;;;;5116425;28;20250;-60
2021/12/30 13:15:54;;;;;;;11.52;6.07;;;;;;;;;;5115982;28;20557;-61
2021/12/30 13:18:20;;;;;;;9.98;6.00;;;;;;;;;;5116209;28;20175;-61
2021/12/30 13:20:48;;;;;;;8.82;5.82;;;;;;;;;;5116109;28;20500;-60
2021/12/30 13:23:24;;;;;;;8.50;5.45;;;;;;;;;;5116063;28;20182;-60
2021/12/30 13:26:02;;;;;;;9.70;4.78;;;;;;;;;;5116148;28;20158;-61
2021/12/30 13:28:28;;;;;;;6.35;4.65;;;;;;;;;;5116498;28;20166;-61
2021/12/30 13:31:04;;;;;;;8.57;4.47;;;;;;;;;;5116201;28;20178;-60
2021/12/30 13:33:30;;;;;;;7.05;4.60;;;;;;;;;;5116091;28;20187;-61
2021/12/30 13:35:56;;;;;;;6.85;4.65;;;;;;;;;;5115992;28;20190;-61
2021/12/30 13:38:25;;;;;;;6.80;4.95;;;;;;;;;;5115876;28;20198;-61
2021/12/30 13:40:51;;;;;;;7.10;4.78;;;;;;;;;;5116044;28;20602;-61
2021/12/30 13:43:18;;;;;;;8.98;5.00;;;;;;;;;;5115839;28;20201;-61
2021/12/30 13:45:45;;;;;;;8.55;5.18;;;;;;;;;;5115945;28;20177;-60
2021/12/30 13:48:12;;;;;;;9.75;5.38;;;;;;;;;;5116211;28;20494;-61
2021/12/30 13:50:40;;;;;;;7.82;5.07;;;;;;;;;;5115656;28;20166;-61
2021/12/30 13:53:06;;;;;;;7.28;5.40;;;;;;;;;;5116001;28;20186;-60
2021/12/30 13:55:36;;;;;;;6.53;4.70;;;;;;;;;;5115932;28;20260;-61
2021/12/30 13:58:02;;;;;;;7.63;4.97;;;;;;;;;;5115860;28;20249;-61
2021/12/30 14:00:29;;;;;;;8.05;4.82;;;;;;;;;;5115811;28;20262;-61
2021/12/30 14:03:05;;;;;;;8.15;4.93;;;;;;;;;;5115451;28;20247;-60
2021/12/30 14:05:32;;;;;;;7.32;4.80;;;;;;;;;;5115646;28;20178;-59
2021/12/30 14:08:02;;;;;;;8.23;5.00;;;;;;;;;;5115553;28;20224;-60
2021/12/30 14:10:42;;;;;;;7.28;5.15;;;;;;;;;;5115187;28;20517;-61
2021/12/30 14:13:07;;;;;;;6.82;4.50;;;;;;;;;;5115222;28;20190;-60
2021/12/30 14:15:34;;;;;;;7.15;4.95;;;;;;;;;;5115058;28;20167;-61
2021/12/30 14:18:02;;;;;;;8.80;5.30;;;;;;;;;;5114963;28;20182;-60
2021/12/30 14:20:27;;;;;;;8.25;5.88;;;;;;;;;;5115132;28;20686;-61
2021/12/30 14:22:54;;;;;;;8.98;5.22;;;;;;;;;;5115182;28;20258;-61